Terminal Aerodrome Forecast
Issued by NWS Burlington, VT

Home | Current Version | Previous Version | Text Only | Print | Product List | Glossary On
Versions: 1 2 3 4 5 6 7 8 9 10 11 12 13 14 15 16 17 18 19 20 21 22 23
000
FTUS41 KBTV 281723
TAFBTV
TAF
KBTV 281723Z 2818/2918 32007KT P6SM VCSH BKN035
     FM282300 VRB03KT P6SM SCT070
     FM291500 17008KT P6SM BKN060=

USA.gov is the U.S. government's official web portal to all federal, state and local government web resources and services.